sensor_id;sensor_type;location;lat;lon;timestamp;pressure;altitude;pressure_sealevel;temperature;humidity
35892;BME280;21993;42.672;23.296;2023-01-29T00:01:25;94828.69;;;2.81;70.77
35892;BME280;21993;42.672;23.296;2023-01-29T00:03:51;94821.66;;;2.83;70.54
35892;BME280;21993;42.672;23.296;2023-01-29T00:06:16;94823.84;;;2.75;70.58
35892;BME280;21993;42.672;23.296;2023-01-29T00:08:42;94824.28;;;2.67;70.67
35892;BME280;21993;42.672;23.296;2023-01-29T00:11:07;94819.59;;;2.74;70.93
35892;BME280;21993;42.672;23.296;2023-01-29T00:13:33;94829.72;;;2.63;70.95
35892;BME280;21993;42.672;23.296;2023-01-29T00:15:59;94840.25;;;2.60;71.29
35892;BME280;21993;42.672;23.296;2023-01-29T00:18:26;94835.25;;;2.57;71.29
35892;BME280;21993;42.672;23.296;2023-01-29T00:20:52;94835.44;;;2.53;71.05
35892;BME280;21993;42.672;23.296;2023-01-29T00:23:18;94839.25;;;2.62;71.60
35892;BME280;21993;42.672;23.296;2023-01-29T00:25:44;94844.19;;;2.67;71.52
35892;BME280;21993;42.672;23.296;2023-01-29T00:28:10;94845.59;;;2.72;70.87
35892;BME280;21993;42.672;23.296;2023-01-29T00:30:36;94847.34;;;2.72;70.66
35892;BME280;21993;42.672;23.296;2023-01-29T00:33:02;94841.22;;;2.89;69.84
35892;BME280;21993;42.672;23.296;2023-01-29T00:35:27;94841.44;;;2.70;70.59
35892;BME280;21993;42.672;23.296;2023-01-29T00:37:56;94846.44;;;2.73;70.61
35892;BME280;21993;42.672;23.296;2023-01-29T00:40:23;94846.34;;;2.74;70.41
35892;BME280;21993;42.672;23.296;2023-01-29T00:42:48;94853.06;;;2.63;70.67
35892;BME280;21993;42.672;23.296;2023-01-29T00:45:32;94851.94;;;2.51;71.40
35892;BME280;21993;42.672;23.296;2023-01-29T00:47:58;94846.25;;;2.60;71.88
35892;BME280;21993;42.672;23.296;2023-01-29T00:50:24;94853.63;;;2.68;71.42
35892;BME280;21993;42.672;23.296;2023-01-29T00:52:49;94848.09;;;2.74;71.01
35892;BME280;21993;42.672;23.296;2023-01-29T00:55:17;94849.63;;;2.78;71.28
35892;BME280;21993;42.672;23.296;2023-01-29T00:57:42;94840.00;;;2.80;70.41
35892;BME280;21993;42.672;23.296;2023-01-29T01:00:10;94844.06;;;2.84;70.87
35892;BME280;21993;42.672;23.296;2023-01-29T01:02:36;94839.47;;;2.89;70.86
35892;BME280;21993;42.672;23.296;2023-01-29T01:05:20;94836.59;;;2.94;71.53
35892;BME280;21993;42.672;23.296;2023-01-29T01:07:48;94846.81;;;2.97;70.90
35892;BME280;21993;42.672;23.296;2023-01-29T01:10:16;94836.59;;;2.64;71.60
35892;BME280;21993;42.672;23.296;2023-01-29T01:12:53;94842.00;;;2.75;72.36
35892;BME280;21993;42.672;23.296;2023-01-29T01:15:20;94843.25;;;2.68;72.11
35892;BME280;21993;42.672;23.296;2023-01-29T01:17:45;94837.56;;;2.77;72.23
35892;BME280;21993;42.672;23.296;2023-01-29T01:20:13;94836.97;;;2.88;71.74
35892;BME280;21993;42.672;23.296;2023-01-29T01:22:38;94842.41;;;2.83;71.71
35892;BME280;21993;42.672;23.296;2023-01-29T01:25:04;94837.31;;;2.66;72.14
35892;BME280;21993;42.672;23.296;2023-01-29T01:27:29;94839.00;;;2.67;72.80
35892;BME280;21993;42.672;23.296;2023-01-29T01:29:55;94839.41;;;2.75;72.03
35892;BME280;21993;42.672;23.296;2023-01-29T01:32:20;94832.47;;;2.75;72.26
35892;BME280;21993;42.672;23.296;2023-01-29T01:34:46;94839.91;;;2.66;72.42
35892;BME280;21993;42.672;23.296;2023-01-29T01:37:11;94838.56;;;2.74;71.81
35892;BME280;21993;42.672;23.296;2023-01-29T01:39:37;94847.34;;;2.72;71.73
35892;BME280;21993;42.672;23.296;2023-01-29T01:42:02;94849.63;;;2.62;72.65
35892;BME280;21993;42.672;23.296;2023-01-29T01:44:51;94841.78;;;2.64;72.65
35892;BME280;21993;42.672;23.296;2023-01-29T01:47:21;94841.03;;;2.62;72.63
35892;BME280;21993;42.672;23.296;2023-01-29T01:49:48;94843.75;;;2.59;72.75
35892;BME280;21993;42.672;23.296;2023-01-29T01:52:14;94850.56;;;2.61;72.17
35892;BME280;21993;42.672;23.296;2023-01-29T01:54:40;94859.50;;;2.56;72.53
35892;BME280;21993;42.672;23.296;2023-01-29T01:57:11;94856.97;;;2.70;72.61
35892;BME280;21993;42.672;23.296;2023-01-29T01:59:42;94851.53;;;2.74;72.93
35892;BME280;21993;42.672;23.296;2023-01-29T02:02:12;94859.91;;;2.64;72.09
35892;BME280;21993;42.672;23.296;2023-01-29T02:04:57;94857.97;;;2.67;72.82
35892;BME280;21993;42.672;23.296;2023-01-29T02:07:42;94862.69;;;2.61;72.52
35892;BME280;21993;42.672;23.296;2023-01-29T02:10:31;94855.13;;;2.56;73.25
35892;BME280;21993;42.672;23.296;2023-01-29T02:13:02;94862.00;;;2.57;73.94
35892;BME280;21993;42.672;23.296;2023-01-29T02:15:28;94860.41;;;2.54;73.91
35892;BME280;21993;42.672;23.296;2023-01-29T02:17:53;94858.06;;;2.66;73.97
35892;BME280;21993;42.672;23.296;2023-01-29T02:20:27;94857.56;;;2.59;74.47
35892;BME280;21993;42.672;23.296;2023-01-29T02:28:30;94866.56;;;2.68;74.03
35892;BME280;21993;42.672;23.296;2023-01-29T02:33:35;94865.59;;;2.70;74.78
35892;BME280;21993;42.672;23.296;2023-01-29T02:36:17;94868.50;;;2.64;74.89
35892;BME280;21993;42.672;23.296;2023-01-29T02:38:58;94873.19;;;2.73;74.67
35892;BME280;21993;42.672;23.296;2023-01-29T02:41:36;94868.66;;;2.77;74.91
35892;BME280;21993;42.672;23.296;2023-01-29T02:44:23;94874.34;;;2.68;75.21
35892;BME280;21993;42.672;23.296;2023-01-29T02:47:00;94883.03;;;2.67;74.42
35892;BME280;21993;42.672;23.296;2023-01-29T02:49:36;94873.09;;;2.75;74.81
35892;BME280;21993;42.672;23.296;2023-01-29T02:52:16;94887.66;;;2.62;75.44
35892;BME280;21993;42.672;23.296;2023-01-29T02:57:20;94879.78;;;2.47;76.14
35892;BME280;21993;42.672;23.296;2023-01-29T03:00:14;94882.06;;;2.53;75.88
35892;BME280;21993;42.672;23.296;2023-01-29T03:06:00;94883.41;;;2.61;75.38
35892;BME280;21993;42.672;23.296;2023-01-29T03:08:46;94885.22;;;2.59;75.99
35892;BME280;21993;42.672;23.296;2023-01-29T03:11:15;94877.53;;;2.57;76.27
35892;BME280;21993;42.672;23.296;2023-01-29T03:19:08;94873.97;;;2.44;76.73
35892;BME280;21993;42.672;23.296;2023-01-29T03:21:40;94873.69;;;2.48;76.04
35892;BME280;21993;42.672;23.296;2023-01-29T03:27:32;94886.91;;;2.44;76.91
35892;BME280;21993;42.672;23.296;2023-01-29T03:30:21;94890.38;;;2.43;76.79
35892;BME280;21993;42.672;23.296;2023-01-29T03:33:10;94885.06;;;2.46;76.11
35892;BME280;21993;42.672;23.296;2023-01-29T03:35:42;94889.06;;;2.51;75.65
35892;BME280;21993;42.672;23.296;2023-01-29T03:38:12;94890.56;;;2.56;75.11
35892;BME280;21993;42.672;23.296;2023-01-29T03:40:46;94896.38;;;2.61;75.20
35892;BME280;21993;42.672;23.296;2023-01-29T03:50:56;94884.78;;;2.50;74.41
35892;BME280;21993;42.672;23.296;2023-01-29T03:53:29;94886.97;;;2.58;74.28
35892;BME280;21993;42.672;23.296;2023-01-29T03:56:07;94886.66;;;2.48;74.28
35892;BME280;21993;42.672;23.296;2023-01-29T03:59:14;94877.03;;;2.50;75.12
35892;BME280;21993;42.672;23.296;2023-01-29T04:02:12;94892.50;;;2.68;74.74
35892;BME280;21993;42.672;23.296;2023-01-29T04:04:41;94889.88;;;2.52;75.04
35892;BME280;21993;42.672;23.296;2023-01-29T04:07:15;94889.47;;;2.60;74.87
35892;BME280;21993;42.672;23.296;2023-01-29T04:09:48;94888.72;;;2.58;75.68
35892;BME280;21993;42.672;23.296;2023-01-29T04:12:19;94883.41;;;2.61;75.12
35892;BME280;21993;42.672;23.296;2023-01-29T04:14:46;94890.16;;;2.63;74.90
35892;BME280;21993;42.672;23.296;2023-01-29T04:17:19;94898.09;;;2.44;75.36
35892;BME280;21993;42.672;23.296;2023-01-29T04:19:47;94903.53;;;2.56;75.71
35892;BME280;21993;42.672;23.296;2023-01-29T04:24:46;94899.94;;;2.58;75.41
35892;BME280;21993;42.672;23.296;2023-01-29T04:27:25;94903.44;;;2.57;75.42
35892;BME280;21993;42.672;23.296;2023-01-29T04:35:24;94905.28;;;2.55;75.61
35892;BME280;21993;42.672;23.296;2023-01-29T04:38:04;94903.97;;;2.64;74.64
35892;BME280;21993;42.672;23.296;2023-01-29T04:40:51;94909.97;;;2.64;75.05
35892;BME280;21993;42.672;23.296;2023-01-29T04:43:40;94908.19;;;2.49;74.44
35892;BME280;21993;42.672;23.296;2023-01-29T04:46:18;94909.31;;;2.45;74.92
35892;BME280;21993;42.672;23.296;2023-01-29T04:49:17;94906.97;;;2.56;74.63
35892;BME280;21993;42.672;23.296;2023-01-29T04:52:18;94904.13;;;2.45;75.13
35892;BME280;21993;42.672;23.296;2023-01-29T04:55:00;94913.66;;;2.44;74.53
35892;BME280;21993;42.672;23.296;2023-01-29T05:00:28;94910.28;;;2.58;74.82
35892;BME280;21993;42.672;23.296;2023-01-29T05:02:56;94903.03;;;2.49;74.74
35892;BME280;21993;42.672;23.296;2023-01-29T05:05:23;94914.28;;;2.32;75.23
35892;BME280;21993;42.672;23.296;2023-01-29T05:07:48;94911.34;;;2.22;75.48
35892;BME280;21993;42.672;23.296;2023-01-29T05:10:17;94911.28;;;2.40;75.11
35892;BME280;21993;42.672;23.296;2023-01-29T05:12:47;94918.31;;;2.38;74.81
35892;BME280;21993;42.672;23.296;2023-01-29T05:15:16;94927.22;;;2.32;75.27
35892;BME280;21993;42.672;23.296;2023-01-29T05:17:43;94926.72;;;2.25;75.18
35892;BME280;21993;42.672;23.296;2023-01-29T05:20:10;94921.13;;;2.33;74.79
35892;BME280;21993;42.672;23.296;2023-01-29T05:22:40;94920.81;;;2.39;75.43
35892;BME280;21993;42.672;23.296;2023-01-29T05:25:25;94926.75;;;2.41;75.36
35892;BME280;21993;42.672;23.296;2023-01-29T05:27:51;94928.50;;;2.41;75.21
35892;BME280;21993;42.672;23.296;2023-01-29T05:30:54;94928.09;;;2.48;75.26
35892;BME280;21993;42.672;23.296;2023-01-29T05:33:21;94927.78;;;2.54;75.36
35892;BME280;21993;42.672;23.296;2023-01-29T05:35:47;94930.16;;;2.42;74.61
35892;BME280;21993;42.672;23.296;2023-01-29T05:38:13;94931.25;;;2.38;75.03
35892;BME280;21993;42.672;23.296;2023-01-29T05:40:39;94934.44;;;2.27;75.27
35892;BME280;21993;42.672;23.296;2023-01-29T05:43:05;94934.25;;;2.30;75.16
35892;BME280;21993;42.672;23.296;2023-01-29T05:45:38;94940.19;;;2.32;75.17
35892;BME280;21993;42.672;23.296;2023-01-29T05:48:03;94937.09;;;2.41;75.32
35892;BME280;21993;42.672;23.296;2023-01-29T05:50:29;94941.31;;;2.44;75.07
35892;BME280;21993;42.672;23.296;2023-01-29T05:52:58;94942.63;;;2.51;75.41
35892;BME280;21993;42.672;23.296;2023-01-29T05:55:25;94953.25;;;2.46;75.19
35892;BME280;21993;42.672;23.296;2023-01-29T05:57:50;94945.97;;;2.37;76.08
35892;BME280;21993;42.672;23.296;2023-01-29T06:00:16;94949.41;;;2.38;75.60
35892;BME280;21993;42.672;23.296;2023-01-29T06:02:42;94950.09;;;2.24;75.22
35892;BME280;21993;42.672;23.296;2023-01-29T06:05:08;94955.50;;;2.37;74.92
35892;BME280;21993;42.672;23.296;2023-01-29T06:07:33;94964.44;;;2.47;75.20
35892;BME280;21993;42.672;23.296;2023-01-29T06:09:58;94960.00;;;2.49;75.48
35892;BME280;21993;42.672;23.296;2023-01-29T06:12:25;94961.16;;;2.43;75.35
35892;BME280;21993;42.672;23.296;2023-01-29T06:14:51;94958.13;;;2.52;75.75
35892;BME280;21993;42.672;23.296;2023-01-29T06:17:16;94962.19;;;2.57;74.96
35892;BME280;21993;42.672;23.296;2023-01-29T06:19:42;94971.31;;;2.48;75.93
35892;BME280;21993;42.672;23.296;2023-01-29T06:22:07;94975.38;;;2.52;75.37
35892;BME280;21993;42.672;23.296;2023-01-29T06:24:33;94967.88;;;2.47;75.90
35892;BME280;21993;42.672;23.296;2023-01-29T06:26:58;94988.72;;;2.29;75.75
35892;BME280;21993;42.672;23.296;2023-01-29T06:29:23;94986.22;;;2.27;76.45
35892;BME280;21993;42.672;23.296;2023-01-29T06:31:49;94995.50;;;2.31;76.22
35892;BME280;21993;42.672;23.296;2023-01-29T06:34:14;94997.16;;;2.32;76.82
35892;BME280;21993;42.672;23.296;2023-01-29T06:36:40;94992.84;;;2.48;75.57
35892;BME280;21993;42.672;23.296;2023-01-29T06:39:06;94997.72;;;2.54;76.02
35892;BME280;21993;42.672;23.296;2023-01-29T06:41:31;94994.22;;;2.56;75.81
35892;BME280;21993;42.672;23.296;2023-01-29T06:43:57;95000.16;;;2.58;75.48
35892;BME280;21993;42.672;23.296;2023-01-29T06:46:22;94995.66;;;2.61;75.72
35892;BME280;21993;42.672;23.296;2023-01-29T06:48:47;94997.97;;;2.50;75.91
35892;BME280;21993;42.672;23.296;2023-01-29T06:51:13;94993.53;;;2.52;75.59
35892;BME280;21993;42.672;23.296;2023-01-29T06:53:38;95006.78;;;2.30;76.53
35892;BME280;21993;42.672;23.296;2023-01-29T06:56:04;95006.38;;;2.38;76.70
35892;BME280;21993;42.672;23.296;2023-01-29T06:58:30;95001.72;;;2.44;76.87
35892;BME280;21993;42.672;23.296;2023-01-29T07:01:04;94999.13;;;2.44;76.47
35892;BME280;21993;42.672;23.296;2023-01-29T07:03:29;95000.41;;;2.53;76.65
35892;BME280;21993;42.672;23.296;2023-01-29T07:05:55;95014.53;;;2.63;75.89
35892;BME280;21993;42.672;23.296;2023-01-29T07:08:20;95015.91;;;2.70;75.65
35892;BME280;21993;42.672;23.296;2023-01-29T07:10:47;95017.81;;;2.67;75.50
35892;BME280;21993;42.672;23.296;2023-01-29T07:13:13;95017.97;;;2.64;75.67
35892;BME280;21993;42.672;23.296;2023-01-29T07:15:38;95017.81;;;2.67;75.57
35892;BME280;21993;42.672;23.296;2023-01-29T07:18:04;95027.00;;;2.72;75.26
35892;BME280;21993;42.672;23.296;2023-01-29T07:20:37;95033.56;;;2.79;75.57
35892;BME280;21993;42.672;23.296;2023-01-29T07:23:03;95027.75;;;2.74;75.31
35892;BME280;21993;42.672;23.296;2023-01-29T07:25:28;95028.78;;;2.72;75.54
35892;BME280;21993;42.672;23.296;2023-01-29T07:27:54;95034.97;;;2.85;74.91
35892;BME280;21993;42.672;23.296;2023-01-29T07:30:20;95035.47;;;2.92;75.16
35892;BME280;21993;42.672;23.296;2023-01-29T07:32:46;95037.94;;;2.95;74.00
35892;BME280;21993;42.672;23.296;2023-01-29T07:35:11;95042.09;;;2.97;74.14
35892;BME280;21993;42.672;23.296;2023-01-29T07:37:37;95041.69;;;2.89;74.32
35892;BME280;21993;42.672;23.296;2023-01-29T07:40:03;95037.81;;;2.80;74.34
35892;BME280;21993;42.672;23.296;2023-01-29T07:42:34;95039.41;;;2.83;74.50
35892;BME280;21993;42.672;23.296;2023-01-29T07:45:00;95031.81;;;2.96;74.75
35892;BME280;21993;42.672;23.296;2023-01-29T07:47:25;95039.75;;;2.93;74.74
35892;BME280;21993;42.672;23.296;2023-01-29T07:49:50;95043.56;;;2.86;75.25
35892;BME280;21993;42.672;23.296;2023-01-29T07:52:17;95039.91;;;2.90;74.77
35892;BME280;21993;42.672;23.296;2023-01-29T07:54:43;95042.09;;;2.97;75.09
35892;BME280;21993;42.672;23.296;2023-01-29T07:57:08;95048.66;;;3.04;74.91
35892;BME280;21993;42.672;23.296;2023-01-29T07:59:34;95044.22;;;3.06;73.92
35892;BME280;21993;42.672;23.296;2023-01-29T08:01:59;95043.28;;;3.07;74.04
35892;BME280;21993;42.672;23.296;2023-01-29T08:04:24;95054.47;;;2.92;74.55
35892;BME280;21993;42.672;23.296;2023-01-29T08:06:50;95053.31;;;2.98;75.17
35892;BME280;21993;42.672;23.296;2023-01-29T08:09:15;95055.66;;;3.02;74.49
35892;BME280;21993;42.672;23.296;2023-01-29T08:11:40;95054.06;;;3.00;74.57
35892;BME280;21993;42.672;23.296;2023-01-29T08:14:06;95061.84;;;3.00;74.89
35892;BME280;21993;42.672;23.296;2023-01-29T08:16:34;95059.84;;;3.05;75.33
35892;BME280;21993;42.672;23.296;2023-01-29T08:19:00;95051.97;;;3.06;74.85
35892;BME280;21993;42.672;23.296;2023-01-29T08:21:26;95049.47;;;3.05;74.39
35892;BME280;21993;42.672;23.296;2023-01-29T08:23:51;95055.31;;;3.08;74.52
35892;BME280;21993;42.672;23.296;2023-01-29T08:26:17;95063.19;;;3.07;74.55
35892;BME280;21993;42.672;23.296;2023-01-29T08:28:42;95061.94;;;3.14;73.34
35892;BME280;21993;42.672;23.296;2023-01-29T08:31:15;95057.16;;;3.06;73.77
35892;BME280;21993;42.672;23.296;2023-01-29T08:33:41;95061.44;;;3.07;73.63
35892;BME280;21993;42.672;23.296;2023-01-29T08:36:07;95072.13;;;3.01;74.31
35892;BME280;21993;42.672;23.296;2023-01-29T08:38:33;95072.13;;;3.01;73.24
35892;BME280;21993;42.672;23.296;2023-01-29T08:40:58;95068.22;;;3.10;73.58
35892;BME280;21993;42.672;23.296;2023-01-29T08:43:24;95077.75;;;3.09;73.58
35892;BME280;21993;42.672;23.296;2023-01-29T08:45:49;95071.56;;;3.12;73.42
35892;BME280;21993;42.672;23.296;2023-01-29T08:48:14;95081.13;;;3.12;72.98
35892;BME280;21993;42.672;23.296;2023-01-29T08:50:40;95082.44;;;3.03;72.78
35892;BME280;21993;42.672;23.296;2023-01-29T08:53:07;95084.53;;;3.12;72.11
35892;BME280;21993;42.672;23.296;2023-01-29T08:55:37;95095.59;;;3.16;72.89
35892;BME280;21993;42.672;23.296;2023-01-29T08:58:04;95091.31;;;3.15;72.31
35892;BME280;21993;42.672;23.296;2023-01-29T09:00:30;95096.00;;;3.24;72.66
35892;BME280;21993;42.672;23.296;2023-01-29T09:02:56;95097.69;;;3.25;72.24
35892;BME280;21993;42.672;23.296;2023-01-29T09:05:23;95101.03;;;3.27;72.96
35892;BME280;21993;42.672;23.296;2023-01-29T09:07:49;95097.00;;;3.05;72.58
35892;BME280;21993;42.672;23.296;2023-01-29T09:10:14;95097.09;;;3.20;72.18
35892;BME280;21993;42.672;23.296;2023-01-29T09:12:40;95097.81;;;3.06;72.29
35892;BME280;21993;42.672;23.296;2023-01-29T09:15:06;95100.59;;;3.19;72.57
35892;BME280;21993;42.672;23.296;2023-01-29T09:17:31;95097.34;;;3.15;73.08
35892;BME280;21993;42.672;23.296;2023-01-29T09:19:57;95084.28;;;3.17;72.69
35892;BME280;21993;42.672;23.296;2023-01-29T09:22:22;95093.22;;;3.11;71.46
35892;BME280;21993;42.672;23.296;2023-01-29T09:24:48;95093.16;;;3.13;72.43
35892;BME280;21993;42.672;23.296;2023-01-29T09:27:13;95090.63;;;3.11;72.32
35892;BME280;21993;42.672;23.296;2023-01-29T09:29:39;95087.28;;;3.09;72.28
35892;BME280;21993;42.672;23.296;2023-01-29T09:32:04;95083.84;;;3.08;71.96
35892;BME280;21993;42.672;23.296;2023-01-29T09:34:30;95087.47;;;3.06;71.67
35892;BME280;21993;42.672;23.296;2023-01-29T09:36:55;95087.19;;;3.10;71.81
35892;BME280;21993;42.672;23.296;2023-01-29T09:39:21;95079.94;;;3.17;71.43
35892;BME280;21993;42.672;23.296;2023-01-29T09:42:15;95084.13;;;3.20;71.10
35892;BME280;21993;42.672;23.296;2023-01-29T09:47:32;95072.38;;;2.97;72.29
35892;BME280;21993;42.672;23.296;2023-01-29T09:50:14;95079.50;;;3.09;72.36
35892;BME280;21993;42.672;23.296;2023-01-29T09:55:33;95076.66;;;2.98;71.69
35892;BME280;21993;42.672;23.296;2023-01-29T10:00:56;95073.56;;;3.07;72.49
35892;BME280;21993;42.672;23.296;2023-01-29T10:06:22;95066.44;;;3.10;71.81
35892;BME280;21993;42.672;23.296;2023-01-29T10:25:15;95054.81;;;3.18;70.86
35892;BME280;21993;42.672;23.296;2023-01-29T10:27:47;95055.84;;;3.15;71.47
35892;BME280;21993;42.672;23.296;2023-01-29T10:30:28;95054.25;;;3.13;71.40
35892;BME280;21993;42.672;23.296;2023-01-29T10:33:00;95047.47;;;3.26;71.53
35892;BME280;21993;42.672;23.296;2023-01-29T10:35:33;95046.22;;;3.33;71.67
35892;BME280;21993;42.672;23.296;2023-01-29T10:38:35;95042.28;;;3.10;71.44
35892;BME280;21993;42.672;23.296;2023-01-29T10:46:26;95036.59;;;3.03;72.59
35892;BME280;21993;42.672;23.296;2023-01-29T10:49:07;95044.84;;;2.94;71.81
35892;BME280;21993;42.672;23.296;2023-01-29T10:52:04;95038.38;;;3.03;71.88
35892;BME280;21993;42.672;23.296;2023-01-29T10:59:59;95035.66;;;2.89;72.38
35892;BME280;21993;42.672;23.296;2023-01-29T11:02:26;95042.78;;;3.01;72.47
35892;BME280;21993;42.672;23.296;2023-01-29T11:04:51;95035.06;;;2.99;72.39
35892;BME280;21993;42.672;23.296;2023-01-29T11:07:18;95027.38;;;2.98;72.92
35892;BME280;21993;42.672;23.296;2023-01-29T11:10:14;95032.56;;;2.98;72.24
35892;BME280;21993;42.672;23.296;2023-01-29T11:12:39;95029.38;;;2.93;72.87
35892;BME280;21993;42.672;23.296;2023-01-29T11:15:15;95031.06;;;3.09;72.48
35892;BME280;21993;42.672;23.296;2023-01-29T11:18:03;95028.03;;;3.01;72.62
35892;BME280;21993;42.672;23.296;2023-01-29T11:20:30;95020.69;;;3.09;72.24
35892;BME280;21993;42.672;23.296;2023-01-29T11:22:56;95018.59;;;3.16;72.45
35892;BME280;21993;42.672;23.296;2023-01-29T11:25:22;95022.38;;;2.95;73.10
35892;BME280;21993;42.672;23.296;2023-01-29T11:27:54;95011.09;;;2.96;72.92
35892;BME280;21993;42.672;23.296;2023-01-29T11:30:38;95012.75;;;3.13;72.82
35892;BME280;21993;42.672;23.296;2023-01-29T11:33:20;95006.56;;;3.15;71.42
35892;BME280;21993;42.672;23.296;2023-01-29T11:35:46;95007.31;;;3.01;72.38
35892;BME280;21993;42.672;23.296;2023-01-29T11:40:41;94987.34;;;3.03;72.13
35892;BME280;21993;42.672;23.296;2023-01-29T11:43:15;94987.56;;;3.15;72.61
35892;BME280;21993;42.672;23.296;2023-01-29T11:45:42;94989.47;;;3.27;72.42
35892;BME280;21993;42.672;23.296;2023-01-29T11:48:15;94983.72;;;3.22;71.76
35892;BME280;21993;42.672;23.296;2023-01-29T11:50:41;94973.50;;;3.34;71.67
35892;BME280;21993;42.672;23.296;2023-01-29T11:53:33;94978.16;;;3.44;71.59
35892;BME280;21993;42.672;23.296;2023-01-29T11:56:01;94973.16;;;3.41;71.83
35892;BME280;21993;42.672;23.296;2023-01-29T11:58:30;94978.78;;;3.33;70.91
35892;BME280;21993;42.672;23.296;2023-01-29T12:00:57;94976.50;;;3.43;70.86
35892;BME280;21993;42.672;23.296;2023-01-29T12:03:33;94971.91;;;3.32;72.05
35892;BME280;21993;42.672;23.296;2023-01-29T12:06:02;94977.91;;;3.48;71.09
35892;BME280;21993;42.672;23.296;2023-01-29T12:08:37;94972.84;;;3.31;70.87
35892;BME280;21993;42.672;23.296;2023-01-29T12:11:22;94969.13;;;3.35;71.70
35892;BME280;21993;42.672;23.296;2023-01-29T12:13:59;94964.56;;;3.24;71.95
35892;BME280;21993;42.672;23.296;2023-01-29T12:16:46;94972.16;;;3.27;70.81
35892;BME280;21993;42.672;23.296;2023-01-29T12:22:22;94962.63;;;3.28;72.37
35892;BME280;21993;42.672;23.296;2023-01-29T12:27:37;94973.31;;;3.53;70.67
35892;BME280;21993;42.672;23.296;2023-01-29T12:33:08;94970.88;;;3.50;70.79
35892;BME280;21993;42.672;23.296;2023-01-29T12:35:44;94974.56;;;3.62;71.63
35892;BME280;21993;42.672;23.296;2023-01-29T12:38:17;94974.06;;;3.55;71.53
35892;BME280;21993;42.672;23.296;2023-01-29T12:40:50;94978.13;;;3.59;70.69
35892;BME280;21993;42.672;23.296;2023-01-29T12:46:00;94973.34;;;3.67;70.56
35892;BME280;21993;42.672;23.296;2023-01-29T12:48:32;94966.97;;;3.73;69.41
35892;BME280;21993;42.672;23.296;2023-01-29T12:51:16;94979.47;;;3.66;69.85
35892;BME280;21993;42.672;23.296;2023-01-29T12:53:47;94979.28;;;3.70;69.90
35892;BME280;21993;42.672;23.296;2023-01-29T12:56:35;94982.28;;;3.78;69.94
35892;BME280;21993;42.672;23.296;2023-01-29T12:59:37;94975.63;;;3.58;69.57
35892;BME280;21993;42.672;23.296;2023-01-29T13:04:47;94972.19;;;3.57;70.56
35892;BME280;21993;42.672;23.296;2023-01-29T13:07:30;94973.34;;;3.67;69.66
35892;BME280;21993;42.672;23.296;2023-01-29T13:10:06;94972.94;;;3.59;69.79
35892;BME280;21993;42.672;23.296;2023-01-29T13:12:35;94970.66;;;3.69;68.92
35892;BME280;21993;42.672;23.296;2023-01-29T13:15:11;94955.66;;;3.74;69.53
35892;BME280;21993;42.672;23.296;2023-01-29T13:17:43;94963.06;;;3.66;69.40
35892;BME280;21993;42.672;23.296;2023-01-29T13:20:27;94967.59;;;3.62;68.81
35892;BME280;21993;42.672;23.296;2023-01-29T13:22:55;94971.19;;;3.60;69.35
35892;BME280;21993;42.672;23.296;2023-01-29T13:25:22;94967.75;;;3.59;69.54
35892;BME280;21993;42.672;23.296;2023-01-29T13:27:48;94968.97;;;3.68;70.13
35892;BME280;21993;42.672;23.296;2023-01-29T13:30:31;94974.56;;;3.76;69.70
35892;BME280;21993;42.672;23.296;2023-01-29T13:32:59;94982.78;;;3.68;70.33
35892;BME280;21993;42.672;23.296;2023-01-29T13:35:41;94985.06;;;3.75;71.02
35892;BME280;21993;42.672;23.296;2023-01-29T13:38:24;94979.63;;;3.79;69.81
35892;BME280;21993;42.672;23.296;2023-01-29T13:40:53;94982.94;;;3.81;69.06
35892;BME280;21993;42.672;23.296;2023-01-29T13:43:22;94986.31;;;3.98;69.47
35892;BME280;21993;42.672;23.296;2023-01-29T13:45:50;94991.69;;;3.94;69.28
35892;BME280;21993;42.672;23.296;2023-01-29T13:48:30;94990.94;;;3.92;68.87
35892;BME280;21993;42.672;23.296;2023-01-29T13:51:00;94985.25;;;3.86;69.45
35892;BME280;21993;42.672;23.296;2023-01-29T13:53:39;94989.75;;;3.98;69.18
35892;BME280;21993;42.672;23.296;2023-01-29T13:59:04;94996.56;;;3.85;69.78
35892;BME280;21993;42.672;23.296;2023-01-29T14:04:24;95008.84;;;3.67;70.10
35892;BME280;21993;42.672;23.296;2023-01-29T14:06:52;94999.97;;;3.71;69.44
35892;BME280;21993;42.672;23.296;2023-01-29T14:12:03;95011.59;;;3.80;68.94
35892;BME280;21993;42.672;23.296;2023-01-29T14:17:17;95006.75;;;3.74;70.25
35892;BME280;21993;42.672;23.296;2023-01-29T14:19:48;95008.84;;;3.67;69.52
35892;BME280;21993;42.672;23.296;2023-01-29T14:22:22;95011.13;;;3.57;70.11
35892;BME280;21993;42.672;23.296;2023-01-29T14:24:53;95019.25;;;3.51;70.18
35892;BME280;21993;42.672;23.296;2023-01-29T14:27:22;95021.59;;;3.56;69.95
35892;BME280;21993;42.672;23.296;2023-01-29T14:29:50;95026.69;;;3.57;69.46
35892;BME280;21993;42.672;23.296;2023-01-29T14:32:22;95025.34;;;3.66;69.49
35892;BME280;21993;42.672;23.296;2023-01-29T14:34:57;95031.72;;;3.60;69.50
35892;BME280;21993;42.672;23.296;2023-01-29T14:37:31;95034.41;;;3.43;70.54
35892;BME280;21993;42.672;23.296;2023-01-29T14:43:03;95036.91;;;3.60;70.07
35892;BME280;21993;42.672;23.296;2023-01-29T14:45:34;95038.56;;;3.61;70.99
35892;BME280;21993;42.672;23.296;2023-01-29T14:53:14;95033.97;;;3.66;71.62
35892;BME280;21993;42.672;23.296;2023-01-29T15:00:54;95036.59;;;3.51;71.13
35892;BME280;21993;42.672;23.296;2023-01-29T15:05:52;95041.69;;;3.52;70.09
35892;BME280;21993;42.672;23.296;2023-01-29T15:08:44;95041.13;;;3.47;70.10
35892;BME280;21993;42.672;23.296;2023-01-29T15:11:27;95030.75;;;3.47;70.44
35892;BME280;21993;42.672;23.296;2023-01-29T15:14:13;95031.06;;;3.41;70.42
35892;BME280;21993;42.672;23.296;2023-01-29T15:17:27;95037.50;;;3.50;69.97
35892;BME280;21993;42.672;23.296;2023-01-29T15:19:54;95036.59;;;3.51;70.66
35892;BME280;21993;42.672;23.296;2023-01-29T15:22:22;95035.41;;;3.41;71.28
35892;BME280;21993;42.672;23.296;2023-01-29T15:25:06;95037.94;;;3.26;71.27